sensor_id;sensor_type;location;lat;lon;timestamp;temperature;humidity
61201;DHT22;47065;52.898;6.992;2023-06-22T00:01:28;18.20;99.90
61201;DHT22;47065;52.898;6.992;2023-06-22T00:03:54;18.20;99.90
61201;DHT22;47065;52.898;6.992;2023-06-22T00:06:19;18.10;99.90
61201;DHT22;47065;52.898;6.992;2023-06-22T00:08:45;18.10;99.90
61201;DHT22;47065;52.898;6.992;2023-06-22T00:11:11;18.10;99.90
61201;DHT22;47065;52.898;6.992;2023-06-22T00:13:37;18.00;99.90
61201;DHT22;47065;52.898;6.992;2023-06-22T00:16:04;17.90;99.90
61201;DHT22;47065;52.898;6.992;2023-06-22T00:18:29;17.90;99.90
61201;DHT22;47065;52.898;6.992;2023-06-22T00:20:56;17.90;99.90
61201;DHT22;47065;52.898;6.992;2023-06-22T00:23:25;17.90;99.90
61201;DHT22;47065;52.898;6.992;2023-06-22T00:25:51;17.80;99.90
61201;DHT22;47065;52.898;6.992;2023-06-22T00:28:17;17.70;99.90
61201;DHT22;47065;52.898;6.992;2023-06-22T00:30:42;17.70;99.90
61201;DHT22;47065;52.898;6.992;2023-06-22T00:33:08;17.70;99.90
61201;DHT22;47065;52.898;6.992;2023-06-22T00:35:33;17.70;99.90
61201;DHT22;47065;52.898;6.992;2023-06-22T00:38:00;17.60;99.90
61201;DHT22;47065;52.898;6.992;2023-06-22T00:40:35;17.60;99.90
61201;DHT22;47065;52.898;6.992;2023-06-22T00:43:01;17.60;99.90
61201;DHT22;47065;52.898;6.992;2023-06-22T00:45:27;17.60;99.90
61201;DHT22;47065;52.898;6.992;2023-06-22T00:47:56;17.60;99.90
61201;DHT22;47065;52.898;6.992;2023-06-22T00:50:24;17.60;99.90
61201;DHT22;47065;52.898;6.992;2023-06-22T00:52:57;17.60;99.90
61201;DHT22;47065;52.898;6.992;2023-06-22T00:55:24;17.60;99.90
61201;DHT22;47065;52.898;6.992;2023-06-22T00:57:52;17.60;99.90
61201;DHT22;47065;52.898;6.992;2023-06-22T01:00:22;17.50;99.90
61201;DHT22;47065;52.898;6.992;2023-06-22T01:02:51;17.50;99.90
61201;DHT22;47065;52.898;6.992;2023-06-22T01:05:19;17.50;99.90
61201;DHT22;47065;52.898;6.992;2023-06-22T01:10:40;17.40;99.90
61201;DHT22;47065;52.898;6.992;2023-06-22T01:13:32;17.40;99.90
61201;DHT22;47065;52.898;6.992;2023-06-22T01:16:05;17.30;99.90
61201;DHT22;47065;52.898;6.992;2023-06-22T01:18:32;17.30;99.90
61201;DHT22;47065;52.898;6.992;2023-06-22T01:21:02;17.30;99.90
61201;DHT22;47065;52.898;6.992;2023-06-22T01:29:11;17.20;99.90
61201;DHT22;47065;52.898;6.992;2023-06-22T01:31:39;17.10;99.90
61201;DHT22;47065;52.898;6.992;2023-06-22T01:34:08;17.10;99.90
61201;DHT22;47065;52.898;6.992;2023-06-22T01:36:35;17.10;99.90
61201;DHT22;47065;52.898;6.992;2023-06-22T01:39:03;17.10;99.90
61201;DHT22;47065;52.898;6.992;2023-06-22T01:41:33;17.00;99.90
61201;DHT22;47065;52.898;6.992;2023-06-22T01:44:00;17.00;99.90
61201;DHT22;47065;52.898;6.992;2023-06-22T01:46:26;17.00;99.90
61201;DHT22;47065;52.898;6.992;2023-06-22T01:48:52;17.00;99.90
61201;DHT22;47065;52.898;6.992;2023-06-22T01:51:19;17.00;99.90
61201;DHT22;47065;52.898;6.992;2023-06-22T01:53:44;17.00;99.90
61201;DHT22;47065;52.898;6.992;2023-06-22T01:56:11;17.00;99.90
61201;DHT22;47065;52.898;6.992;2023-06-22T01:58:41;16.90;99.90
61201;DHT22;47065;52.898;6.992;2023-06-22T02:01:10;16.90;99.90
61201;DHT22;47065;52.898;6.992;2023-06-22T02:03:51;16.80;99.90
61201;DHT22;47065;52.898;6.992;2023-06-22T02:06:24;16.80;99.90
61201;DHT22;47065;52.898;6.992;2023-06-22T02:08:57;16.80;99.90
61201;DHT22;47065;52.898;6.992;2023-06-22T02:11:26;16.80;99.90
61201;DHT22;47065;52.898;6.992;2023-06-22T02:13:54;16.80;99.90
61201;DHT22;47065;52.898;6.992;2023-06-22T02:16:21;16.80;99.90
61201;DHT22;47065;52.898;6.992;2023-06-22T02:18:47;16.80;99.90
61201;DHT22;47065;52.898;6.992;2023-06-22T02:21:19;16.70;99.90
61201;DHT22;47065;52.898;6.992;2023-06-22T02:23:44;16.60;99.90
61201;DHT22;47065;52.898;6.992;2023-06-22T02:26:10;16.60;99.90
61201;DHT22;47065;52.898;6.992;2023-06-22T02:28:36;16.60;99.90
61201;DHT22;47065;52.898;6.992;2023-06-22T02:31:01;16.60;99.90
61201;DHT22;47065;52.898;6.992;2023-06-22T02:33:27;16.60;99.90
61201;DHT22;47065;52.898;6.992;2023-06-22T02:35:53;16.50;99.90
61201;DHT22;47065;52.898;6.992;2023-06-22T02:38:18;16.50;99.90
61201;DHT22;47065;52.898;6.992;2023-06-22T02:40:45;16.50;99.90
61201;DHT22;47065;52.898;6.992;2023-06-22T02:43:11;16.50;99.90
61201;DHT22;47065;52.898;6.992;2023-06-22T02:45:37;16.50;99.90
61201;DHT22;47065;52.898;6.992;2023-06-22T02:48:03;16.40;99.90
61201;DHT22;47065;52.898;6.992;2023-06-22T02:50:29;16.40;99.90
61201;DHT22;47065;52.898;6.992;2023-06-22T02:52:54;16.30;99.90
61201;DHT22;47065;52.898;6.992;2023-06-22T02:55:20;16.30;99.90
61201;DHT22;47065;52.898;6.992;2023-06-22T02:57:46;16.30;99.90
61201;DHT22;47065;52.898;6.992;2023-06-22T03:00:13;16.30;99.90
61201;DHT22;47065;52.898;6.992;2023-06-22T03:02:44;16.20;99.90
61201;DHT22;47065;52.898;6.992;2023-06-22T03:05:10;16.20;99.90
61201;DHT22;47065;52.898;6.992;2023-06-22T03:07:41;16.10;99.90
61201;DHT22;47065;52.898;6.992;2023-06-22T03:10:11;16.10;99.90
61201;DHT22;47065;52.898;6.992;2023-06-22T03:12:38;16.00;99.90
61201;DHT22;47065;52.898;6.992;2023-06-22T03:15:07;15.90;99.90
61201;DHT22;47065;52.898;6.992;2023-06-22T03:17:34;15.90;99.90
61201;DHT22;47065;52.898;6.992;2023-06-22T03:20:01;15.80;99.90
61201;DHT22;47065;52.898;6.992;2023-06-22T03:22:26;15.80;99.90
61201;DHT22;47065;52.898;6.992;2023-06-22T03:24:52;15.70;99.90
61201;DHT22;47065;52.898;6.992;2023-06-22T03:27:18;15.70;99.90
61201;DHT22;47065;52.898;6.992;2023-06-22T03:29:44;15.70;99.90
61201;DHT22;47065;52.898;6.992;2023-06-22T03:32:10;15.70;99.90
61201;DHT22;47065;52.898;6.992;2023-06-22T03:34:35;15.60;99.90
61201;DHT22;47065;52.898;6.992;2023-06-22T03:37:01;15.60;99.90
61201;DHT22;47065;52.898;6.992;2023-06-22T03:39:28;15.50;99.90
61201;DHT22;47065;52.898;6.992;2023-06-22T03:41:54;15.60;99.90
61201;DHT22;47065;52.898;6.992;2023-06-22T03:44:19;15.50;99.90
61201;DHT22;47065;52.898;6.992;2023-06-22T03:46:45;15.50;99.90
61201;DHT22;47065;52.898;6.992;2023-06-22T03:49:11;15.50;99.90
61201;DHT22;47065;52.898;6.992;2023-06-22T03:51:36;15.60;99.90
61201;DHT22;47065;52.898;6.992;2023-06-22T03:54:02;15.60;99.90
61201;DHT22;47065;52.898;6.992;2023-06-22T03:56:28;15.60;99.90
61201;DHT22;47065;52.898;6.992;2023-06-22T03:58:53;15.60;99.90
61201;DHT22;47065;52.898;6.992;2023-06-22T04:01:19;15.60;99.90
61201;DHT22;47065;52.898;6.992;2023-06-22T04:03:44;15.70;99.90
61201;DHT22;47065;52.898;6.992;2023-06-22T04:06:13;15.70;99.90
61201;DHT22;47065;52.898;6.992;2023-06-22T04:08:39;15.70;99.90
61201;DHT22;47065;52.898;6.992;2023-06-22T04:11:04;15.70;99.90
61201;DHT22;47065;52.898;6.992;2023-06-22T04:13:30;15.70;99.90
61201;DHT22;47065;52.898;6.992;2023-06-22T04:15:56;15.70;99.90
61201;DHT22;47065;52.898;6.992;2023-06-22T04:18:21;15.70;99.90
61201;DHT22;47065;52.898;6.992;2023-06-22T04:20:48;15.80;99.90
61201;DHT22;47065;52.898;6.992;2023-06-22T04:23:13;15.80;99.90
61201;DHT22;47065;52.898;6.992;2023-06-22T04:25:39;15.80;99.90
61201;DHT22;47065;52.898;6.992;2023-06-22T04:28:05;15.90;99.90
61201;DHT22;47065;52.898;6.992;2023-06-22T04:30:32;15.90;99.90
61201;DHT22;47065;52.898;6.992;2023-06-22T04:32:58;15.90;99.90
61201;DHT22;47065;52.898;6.992;2023-06-22T04:35:24;15.90;99.90
61201;DHT22;47065;52.898;6.992;2023-06-22T04:37:53;15.90;99.90
61201;DHT22;47065;52.898;6.992;2023-06-22T04:40:22;16.00;99.90
61201;DHT22;47065;52.898;6.992;2023-06-22T04:42:47;16.00;99.90
61201;DHT22;47065;52.898;6.992;2023-06-22T04:45:19;16.00;99.90
61201;DHT22;47065;52.898;6.992;2023-06-22T04:47:45;16.10;99.90
61201;DHT22;47065;52.898;6.992;2023-06-22T04:50:11;16.10;99.90
61201;DHT22;47065;52.898;6.992;2023-06-22T04:52:37;16.20;99.90
61201;DHT22;47065;52.898;6.992;2023-06-22T04:55:04;16.20;99.90
61201;DHT22;47065;52.898;6.992;2023-06-22T04:57:29;16.30;99.90
61201;DHT22;47065;52.898;6.992;2023-06-22T05:00:02;16.30;99.90
61201;DHT22;47065;52.898;6.992;2023-06-22T05:02:37;16.30;99.90
61201;DHT22;47065;52.898;6.992;2023-06-22T05:05:04;16.40;99.90
61201;DHT22;47065;52.898;6.992;2023-06-22T05:07:35;16.50;99.90
61201;DHT22;47065;52.898;6.992;2023-06-22T05:10:02;16.60;99.90
61201;DHT22;47065;52.898;6.992;2023-06-22T05:12:29;16.60;99.90
61201;DHT22;47065;52.898;6.992;2023-06-22T05:14:55;16.70;99.90
61201;DHT22;47065;52.898;6.992;2023-06-22T05:17:21;16.70;99.90
61201;DHT22;47065;52.898;6.992;2023-06-22T05:19:46;16.80;99.90
61201;DHT22;47065;52.898;6.992;2023-06-22T05:22:17;16.80;99.90
61201;DHT22;47065;52.898;6.992;2023-06-22T05:24:43;16.80;99.90
61201;DHT22;47065;52.898;6.992;2023-06-22T05:27:09;16.90;99.90
61201;DHT22;47065;52.898;6.992;2023-06-22T05:29:36;16.90;99.90
61201;DHT22;47065;52.898;6.992;2023-06-22T05:32:02;17.00;99.90
61201;DHT22;47065;52.898;6.992;2023-06-22T05:34:28;17.00;99.90
61201;DHT22;47065;52.898;6.992;2023-06-22T05:36:54;17.10;99.90
61201;DHT22;47065;52.898;6.992;2023-06-22T05:39:19;17.20;99.90
61201;DHT22;47065;52.898;6.992;2023-06-22T05:41:45;17.20;99.90
61201;DHT22;47065;52.898;6.992;2023-06-22T05:44:12;17.20;99.90
61201;DHT22;47065;52.898;6.992;2023-06-22T05:46:41;17.30;99.90
61201;DHT22;47065;52.898;6.992;2023-06-22T05:49:11;17.30;99.90
61201;DHT22;47065;52.898;6.992;2023-06-22T05:51:36;17.40;99.90
61201;DHT22;47065;52.898;6.992;2023-06-22T05:54:02;17.50;99.90
61201;DHT22;47065;52.898;6.992;2023-06-22T05:56:28;17.50;99.90
61201;DHT22;47065;52.898;6.992;2023-06-22T05:58:53;17.60;99.90
61201;DHT22;47065;52.898;6.992;2023-06-22T06:01:19;17.70;99.90
61201;DHT22;47065;52.898;6.992;2023-06-22T06:03:45;17.80;99.90
61201;DHT22;47065;52.898;6.992;2023-06-22T06:06:11;17.80;99.90
61201;DHT22;47065;52.898;6.992;2023-06-22T06:08:38;17.90;99.90
61201;DHT22;47065;52.898;6.992;2023-06-22T06:11:04;17.90;99.90
61201;DHT22;47065;52.898;6.992;2023-06-22T06:13:29;18.00;99.90
61201;DHT22;47065;52.898;6.992;2023-06-22T06:15:56;18.10;99.90
61201;DHT22;47065;52.898;6.992;2023-06-22T06:18:22;18.20;99.90
61201;DHT22;47065;52.898;6.992;2023-06-22T06:20:48;18.20;99.90
61201;DHT22;47065;52.898;6.992;2023-06-22T06:23:13;18.30;99.90
61201;DHT22;47065;52.898;6.992;2023-06-22T06:25:39;18.40;99.90
61201;DHT22;47065;52.898;6.992;2023-06-22T06:28:05;18.40;99.90
61201;DHT22;47065;52.898;6.992;2023-06-22T06:30:31;18.50;99.90
61201;DHT22;47065;52.898;6.992;2023-06-22T06:32:56;18.60;99.90
61201;DHT22;47065;52.898;6.992;2023-06-22T06:35:22;18.70;99.90
61201;DHT22;47065;52.898;6.992;2023-06-22T06:37:49;18.80;99.90
61201;DHT22;47065;52.898;6.992;2023-06-22T06:40:17;18.90;99.90
61201;DHT22;47065;52.898;6.992;2023-06-22T06:42:45;19.00;99.90
61201;DHT22;47065;52.898;6.992;2023-06-22T06:45:12;19.10;99.90
61201;DHT22;47065;52.898;6.992;2023-06-22T06:47:39;19.30;99.90
61201;DHT22;47065;52.898;6.992;2023-06-22T06:50:06;19.40;99.90
61201;DHT22;47065;52.898;6.992;2023-06-22T06:52:32;19.60;99.90
61201;DHT22;47065;52.898;6.992;2023-06-22T06:54:58;19.60;99.90
61201;DHT22;47065;52.898;6.992;2023-06-22T06:57:24;19.80;99.90
61201;DHT22;47065;52.898;6.992;2023-06-22T06:59:57;19.80;99.90
61201;DHT22;47065;52.898;6.992;2023-06-22T07:02:23;20.00;99.90
61201;DHT22;47065;52.898;6.992;2023-06-22T07:04:49;20.10;99.90
61201;DHT22;47065;52.898;6.992;2023-06-22T07:07:16;20.10;99.90
61201;DHT22;47065;52.898;6.992;2023-06-22T07:09:42;20.20;99.90
61201;DHT22;47065;52.898;6.992;2023-06-22T07:12:08;20.30;99.90
61201;DHT22;47065;52.898;6.992;2023-06-22T07:14:34;20.30;99.90
61201;DHT22;47065;52.898;6.992;2023-06-22T07:16:59;20.40;99.90
61201;DHT22;47065;52.898;6.992;2023-06-22T07:19:26;20.50;99.90
61201;DHT22;47065;52.898;6.992;2023-06-22T07:21:55;20.60;99.90
61201;DHT22;47065;52.898;6.992;2023-06-22T07:24:31;20.80;99.90
61201;DHT22;47065;52.898;6.992;2023-06-22T07:27:01;20.80;99.90
61201;DHT22;47065;52.898;6.992;2023-06-22T07:29:35;20.90;99.90
61201;DHT22;47065;52.898;6.992;2023-06-22T07:32:10;21.10;99.90
61201;DHT22;47065;52.898;6.992;2023-06-22T07:34:41;21.20;99.90
61201;DHT22;47065;52.898;6.992;2023-06-22T07:37:10;21.30;99.90
61201;DHT22;47065;52.898;6.992;2023-06-22T07:39:36;21.40;99.90
61201;DHT22;47065;52.898;6.992;2023-06-22T07:42:09;21.50;99.90
61201;DHT22;47065;52.898;6.992;2023-06-22T07:44:39;21.60;99.90
61201;DHT22;47065;52.898;6.992;2023-06-22T07:47:13;21.70;99.90
61201;DHT22;47065;52.898;6.992;2023-06-22T07:49:39;21.80;99.90
61201;DHT22;47065;52.898;6.992;2023-06-22T07:52:05;21.90;99.90
61201;DHT22;47065;52.898;6.992;2023-06-22T07:54:32;22.00;99.90
61201;DHT22;47065;52.898;6.992;2023-06-22T07:57:02;22.10;99.90
61201;DHT22;47065;52.898;6.992;2023-06-22T07:59:44;22.10;99.90
61201;DHT22;47065;52.898;6.992;2023-06-22T08:02:12;22.20;99.90
61201;DHT22;47065;52.898;6.992;2023-06-22T08:04:39;22.30;99.90
61201;DHT22;47065;52.898;6.992;2023-06-22T08:07:05;22.40;99.90
61201;DHT22;47065;52.898;6.992;2023-06-22T08:09:42;22.50;99.90
61201;DHT22;47065;52.898;6.992;2023-06-22T08:12:14;22.60;99.90
61201;DHT22;47065;52.898;6.992;2023-06-22T08:14:41;22.60;99.90
61201;DHT22;47065;52.898;6.992;2023-06-22T08:17:28;22.70;99.90
61201;DHT22;47065;52.898;6.992;2023-06-22T08:19:54;22.80;99.90
61201;DHT22;47065;52.898;6.992;2023-06-22T08:22:19;22.80;99.90
61201;DHT22;47065;52.898;6.992;2023-06-22T08:24:45;22.90;99.90
61201;DHT22;47065;52.898;6.992;2023-06-22T08:27:14;22.90;99.90
61201;DHT22;47065;52.898;6.992;2023-06-22T08:29:53;23.10;99.90
61201;DHT22;47065;52.898;6.992;2023-06-22T08:32:23;23.30;99.90
61201;DHT22;47065;52.898;6.992;2023-06-22T08:34:49;23.50;99.90
61201;DHT22;47065;52.898;6.992;2023-06-22T08:37:15;23.60;99.90
61201;DHT22;47065;52.898;6.992;2023-06-22T08:39:52;23.80;99.90
61201;DHT22;47065;52.898;6.992;2023-06-22T08:42:18;24.10;99.90
61201;DHT22;47065;52.898;6.992;2023-06-22T08:44:43;24.50;99.90
61201;DHT22;47065;52.898;6.992;2023-06-22T08:47:12;25.00;99.90
61201;DHT22;47065;52.898;6.992;2023-06-22T08:49:38;25.50;99.90
61201;DHT22;47065;52.898;6.992;2023-06-22T08:52:03;26.10;99.90
61201;DHT22;47065;52.898;6.992;2023-06-22T08:54:29;26.90;99.90
61201;DHT22;47065;52.898;6.992;2023-06-22T08:56:58;27.60;99.90
61201;DHT22;47065;52.898;6.992;2023-06-22T08:59:24;28.30;99.90
61201;DHT22;47065;52.898;6.992;2023-06-22T09:02:09;28.70;99.50
61201;DHT22;47065;52.898;6.992;2023-06-22T09:04:35;28.90;97.10
61201;DHT22;47065;52.898;6.992;2023-06-22T09:07:01;29.40;96.00
61201;DHT22;47065;52.898;6.992;2023-06-22T09:09:29;29.90;95.00
61201;DHT22;47065;52.898;6.992;2023-06-22T09:11:55;30.30;93.20
61201;DHT22;47065;52.898;6.992;2023-06-22T09:14:27;30.50;92.20
61201;DHT22;47065;52.898;6.992;2023-06-22T09:16:55;30.80;90.20
61201;DHT22;47065;52.898;6.992;2023-06-22T09:19:20;31.10;90.40
61201;DHT22;47065;52.898;6.992;2023-06-22T09:21:46;31.50;89.20
61201;DHT22;47065;52.898;6.992;2023-06-22T09:24:12;31.80;88.40
61201;DHT22;47065;52.898;6.992;2023-06-22T09:26:40;31.90;83.50
61201;DHT22;47065;52.898;6.992;2023-06-22T09:29:19;32.00;84.20
61201;DHT22;47065;52.898;6.992;2023-06-22T09:31:47;32.10;79.20
61201;DHT22;47065;52.898;6.992;2023-06-22T09:34:15;31.90;80.10
61201;DHT22;47065;52.898;6.992;2023-06-22T09:36:41;31.90;79.80
61201;DHT22;47065;52.898;6.992;2023-06-22T09:39:13;31.90;78.20
61201;DHT22;47065;52.898;6.992;2023-06-22T09:41:41;31.90;78.30
61201;DHT22;47065;52.898;6.992;2023-06-22T09:44:17;32.10;79.40
61201;DHT22;47065;52.898;6.992;2023-06-22T09:46:43;32.30;76.80
61201;DHT22;47065;52.898;6.992;2023-06-22T09:49:12;32.40;75.80
61201;DHT22;47065;52.898;6.992;2023-06-22T09:51:40;32.50;73.60
61201;DHT22;47065;52.898;6.992;2023-06-22T09:54:08;32.40;74.20
61201;DHT22;47065;52.898;6.992;2023-06-22T09:56:41;32.20;73.60
61201;DHT22;47065;52.898;6.992;2023-06-22T09:59:07;32.10;74.70
61201;DHT22;47065;52.898;6.992;2023-06-22T10:01:33;32.10;75.30
61201;DHT22;47065;52.898;6.992;2023-06-22T10:04:02;31.80;74.30
61201;DHT22;47065;52.898;6.992;2023-06-22T10:06:28;31.70;73.30
61201;DHT22;47065;52.898;6.992;2023-06-22T10:08:59;31.60;73.80
61201;DHT22;47065;52.898;6.992;2023-06-22T10:11:28;31.70;72.90
61201;DHT22;47065;52.898;6.992;2023-06-22T10:13:56;31.60;74.00
61201;DHT22;47065;52.898;6.992;2023-06-22T10:16:29;31.50;73.50
61201;DHT22;47065;52.898;6.992;2023-06-22T10:18:55;31.50;73.50
61201;DHT22;47065;52.898;6.992;2023-06-22T10:21:21;31.30;73.00
61201;DHT22;47065;52.898;6.992;2023-06-22T10:23:46;31.20;74.10
61201;DHT22;47065;52.898;6.992;2023-06-22T10:26:12;31.20;73.70
61201;DHT22;47065;52.898;6.992;2023-06-22T10:28:37;31.00;73.10
61201;DHT22;47065;52.898;6.992;2023-06-22T10:31:31;30.90;74.10
61201;DHT22;47065;52.898;6.992;2023-06-22T10:33:57;30.80;74.90
61201;DHT22;47065;52.898;6.992;2023-06-22T10:36:23;30.80;75.90
61201;DHT22;47065;52.898;6.992;2023-06-22T10:38:48;30.60;75.80
61201;DHT22;47065;52.898;6.992;2023-06-22T10:41:15;30.70;76.10
61201;DHT22;47065;52.898;6.992;2023-06-22T10:43:41;30.60;75.50
61201;DHT22;47065;52.898;6.992;2023-06-22T10:46:07;30.50;76.10
61201;DHT22;47065;52.898;6.992;2023-06-22T10:48:32;30.50;75.70
61201;DHT22;47065;52.898;6.992;2023-06-22T10:50:58;30.40;75.50
61201;DHT22;47065;52.898;6.992;2023-06-22T10:53:24;30.30;75.80
61201;DHT22;47065;52.898;6.992;2023-06-22T10:55:50;30.30;76.70
61201;DHT22;47065;52.898;6.992;2023-06-22T10:58:21;30.30;76.20
61201;DHT22;47065;52.898;6.992;2023-06-22T11:00:49;30.20;75.90
61201;DHT22;47065;52.898;6.992;2023-06-22T11:03:17;30.10;75.90
61201;DHT22;47065;52.898;6.992;2023-06-22T11:05:49;30.00;76.30
61201;DHT22;47065;52.898;6.992;2023-06-22T11:08:15;29.90;77.10
61201;DHT22;47065;52.898;6.992;2023-06-22T11:10:41;29.90;76.50
61201;DHT22;47065;52.898;6.992;2023-06-22T11:13:08;29.70;77.00
61201;DHT22;47065;52.898;6.992;2023-06-22T11:15:35;29.60;77.00
61201;DHT22;47065;52.898;6.992;2023-06-22T11:18:06;29.60;76.60
61201;DHT22;47065;52.898;6.992;2023-06-22T11:20:35;29.50;77.00
61201;DHT22;47065;52.898;6.992;2023-06-22T11:23:06;29.50;77.20
61201;DHT22;47065;52.898;6.992;2023-06-22T11:25:33;29.30;77.20
61201;DHT22;47065;52.898;6.992;2023-06-22T11:28:03;29.10;76.90
61201;DHT22;47065;52.898;6.992;2023-06-22T11:30:29;29.00;76.60
61201;DHT22;47065;52.898;6.992;2023-06-22T11:32:57;29.00;77.40
61201;DHT22;47065;52.898;6.992;2023-06-22T11:35:23;29.00;78.30
61201;DHT22;47065;52.898;6.992;2023-06-22T11:37:49;29.00;77.90
61201;DHT22;47065;52.898;6.992;2023-06-22T11:40:48;29.00;78.00
61201;DHT22;47065;52.898;6.992;2023-06-22T11:43:20;28.80;78.50
61201;DHT22;47065;52.898;6.992;2023-06-22T11:46:09;28.70;78.80
61201;DHT22;47065;52.898;6.992;2023-06-22T11:48:35;28.60;78.30
61201;DHT22;47065;52.898;6.992;2023-06-22T11:51:07;28.60;78.80
61201;DHT22;47065;52.898;6.992;2023-06-22T11:53:51;28.40;78.00
61201;DHT22;47065;52.898;6.992;2023-06-22T11:56:39;28.30;78.80
61201;DHT22;47065;52.898;6.992;2023-06-22T12:02:21;27.90;80.20
61201;DHT22;47065;52.898;6.992;2023-06-22T12:05:16;27.80;80.80
61201;DHT22;47065;52.898;6.992;2023-06-22T12:07:44;27.70;81.70
61201;DHT22;47065;52.898;6.992;2023-06-22T12:10:22;27.70;82.00
61201;DHT22;47065;52.898;6.992;2023-06-22T12:12:56;27.60;82.20
61201;DHT22;47065;52.898;6.992;2023-06-22T12:15:31;27.70;81.50
61201;DHT22;47065;52.898;6.992;2023-06-22T12:17:58;27.70;81.80
61201;DHT22;47065;52.898;6.992;2023-06-22T12:20:29;27.70;81.00
61201;DHT22;47065;52.898;6.992;2023-06-22T12:22:55;27.70;79.90
61201;DHT22;47065;52.898;6.992;2023-06-22T12:25:40;27.70;80.30
61201;DHT22;47065;52.898;6.992;2023-06-22T12:28:47;27.70;81.40
61201;DHT22;47065;52.898;6.992;2023-06-22T12:31:15;27.80;82.70
61201;DHT22;47065;52.898;6.992;2023-06-22T12:33:41;27.80;82.20
61201;DHT22;47065;52.898;6.992;2023-06-22T12:36:07;27.80;80.30
61201;DHT22;47065;52.898;6.992;2023-06-22T12:38:33;27.80;79.90
61201;DHT22;47065;52.898;6.992;2023-06-22T12:40:58;27.80;80.30
61201;DHT22;47065;52.898;6.992;2023-06-22T12:43:27;27.90;81.30
61201;DHT22;47065;52.898;6.992;2023-06-22T12:45:53;28.10;80.10
61201;DHT22;47065;52.898;6.992;2023-06-22T12:48:19;28.50;79.80
61201;DHT22;47065;52.898;6.992;2023-06-22T12:50:45;28.90;79.40
61201;DHT22;47065;52.898;6.992;2023-06-22T12:53:12;29.10;77.90
61201;DHT22;47065;52.898;6.992;2023-06-22T12:55:38;29.10;77.80
61201;DHT22;47065;52.898;6.992;2023-06-22T12:58:03;29.10;76.50
61201;DHT22;47065;52.898;6.992;2023-06-22T13:00:29;29.00;76.40
61201;DHT22;47065;52.898;6.992;2023-06-22T13:02:55;29.00;77.20
61201;DHT22;47065;52.898;6.992;2023-06-22T13:05:20;28.80;77.20
61201;DHT22;47065;52.898;6.992;2023-06-22T13:07:46;28.70;77.30
61201;DHT22;47065;52.898;6.992;2023-06-22T13:10:11;28.60;77.30
61201;DHT22;47065;52.898;6.992;2023-06-22T13:12:37;28.50;77.20
61201;DHT22;47065;52.898;6.992;2023-06-22T13:15:03;28.30;77.00
61201;DHT22;47065;52.898;6.992;2023-06-22T13:17:29;28.10;76.60
61201;DHT22;47065;52.898;6.992;2023-06-22T13:19:55;27.90;76.50
61201;DHT22;47065;52.898;6.992;2023-06-22T13:22:28;27.70;76.50
61201;DHT22;47065;52.898;6.992;2023-06-22T13:24:54;27.60;77.60
61201;DHT22;47065;52.898;6.992;2023-06-22T13:27:20;27.40;77.40
61201;DHT22;47065;52.898;6.992;2023-06-22T13:29:46;27.30;77.60
61201;DHT22;47065;52.898;6.992;2023-06-22T13:32:11;27.20;77.70
61201;DHT22;47065;52.898;6.992;2023-06-22T13:34:37;27.10;78.00
61201;DHT22;47065;52.898;6.992;2023-06-22T13:37:03;27.00;78.60
61201;DHT22;47065;52.898;6.992;2023-06-22T13:39:28;26.90;79.10
61201;DHT22;47065;52.898;6.992;2023-06-22T13:41:54;26.90;80.10
61201;DHT22;47065;52.898;6.992;2023-06-22T13:44:19;26.90;80.60
61201;DHT22;47065;52.898;6.992;2023-06-22T13:46:47;26.90;80.80
61201;DHT22;47065;52.898;6.992;2023-06-22T13:49:13;26.90;80.60
61201;DHT22;47065;52.898;6.992;2023-06-22T13:51:38;26.80;80.20
61201;DHT22;47065;52.898;6.992;2023-06-22T13:54:04;26.80;80.10
61201;DHT22;47065;52.898;6.992;2023-06-22T13:56:30;26.90;81.70
61201;DHT22;47065;52.898;6.992;2023-06-22T13:58:55;26.90;82.50
61201;DHT22;47065;52.898;6.992;2023-06-22T14:01:21;26.80;82.90
61201;DHT22;47065;52.898;6.992;2023-06-22T14:03:48;26.70;83.30
61201;DHT22;47065;52.898;6.992;2023-06-22T14:06:13;26.60;84.00
61201;DHT22;47065;52.898;6.992;2023-06-22T14:08:39;26.60;84.50
61201;DHT22;47065;52.898;6.992;2023-06-22T14:11:05;26.60;85.50
61201;DHT22;47065;52.898;6.992;2023-06-22T14:13:30;26.80;85.60
61201;DHT22;47065;52.898;6.992;2023-06-22T14:15:56;26.80;85.80
61201;DHT22;47065;52.898;6.992;2023-06-22T14:18:21;26.70;86.30
61201;DHT22;47065;52.898;6.992;2023-06-22T14:20:50;26.60;86.70
61201;DHT22;47065;52.898;6.992;2023-06-22T14:23:15;26.70;87.20
61201;DHT22;47065;52.898;6.992;2023-06-22T14:25:41;26.80;87.40
61201;DHT22;47065;52.898;6.992;2023-06-22T14:28:07;26.80;87.30
61201;DHT22;47065;52.898;6.992;2023-06-22T14:30:32;26.80;87.30
61201;DHT22;47065;52.898;6.992;2023-06-22T14:32:58;26.80;87.30
61201;DHT22;47065;52.898;6.992;2023-06-22T14:35:24;26.70;87.80
61201;DHT22;47065;52.898;6.992;2023-06-22T14:37:50;26.80;87.40
61201;DHT22;47065;52.898;6.992;2023-06-22T14:40:15;26.90;88.30
61201;DHT22;47065;52.898;6.992;2023-06-22T14:42:42;26.80;89.40
61201;DHT22;47065;52.898;6.992;2023-06-22T14:45:08;26.60;89.30
61201;DHT22;47065;52.898;6.992;2023-06-22T14:47:33;26.50;90.00
61201;DHT22;47065;52.898;6.992;2023-06-22T14:49:59;26.60;90.00
61201;DHT22;47065;52.898;6.992;2023-06-22T14:52:26;26.60;89.10
61201;DHT22;47065;52.898;6.992;2023-06-22T14:54:52;26.50;88.80
61201;DHT22;47065;52.898;6.992;2023-06-22T14:57:18;26.30;88.60
61201;DHT22;47065;52.898;6.992;2023-06-22T14:59:46;26.40;89.30
61201;DHT22;47065;52.898;6.992;2023-06-22T15:02:13;26.50;88.80
61201;DHT22;47065;52.898;6.992;2023-06-22T15:04:38;26.40;88.70
61201;DHT22;47065;52.898;6.992;2023-06-22T15:07:04;26.30;89.30
61201;DHT22;47065;52.898;6.992;2023-06-22T15:09:30;26.10;90.10
61201;DHT22;47065;52.898;6.992;2023-06-22T15:11:56;26.00;92.00
61201;DHT22;47065;52.898;6.992;2023-06-22T15:14:23;26.10;91.50
61201;DHT22;47065;52.898;6.992;2023-06-22T15:16:49;26.00;91.30
61201;DHT22;47065;52.898;6.992;2023-06-22T15:19:15;25.70;91.40
61201;DHT22;47065;52.898;6.992;2023-06-22T15:21:41;25.60;92.10
61201;DHT22;47065;52.898;6.992;2023-06-22T15:24:06;25.60;92.40
61201;DHT22;47065;52.898;6.992;2023-06-22T15:26:32;25.50;92.50
61201;DHT22;47065;52.898;6.992;2023-06-22T15:28:58;25.30;92.60
61201;DHT22;47065;52.898;6.992;2023-06-22T15:31:23;25.20;92.50
61201;DHT22;47065;52.898;6.992;2023-06-22T15:33:49;24.90;93.00
61201;DHT22;47065;52.898;6.992;2023-06-22T15:36:15;24.60;93.70
61201;DHT22;47065;52.898;6.992;2023-06-22T15:38:40;24.30;94.40
61201;DHT22;47065;52.898;6.992;2023-06-22T15:41:06;24.10;95.20
61201;DHT22;47065;52.898;6.992;2023-06-22T15:43:32;23.80;96.60
61201;DHT22;47065;52.898;6.992;2023-06-22T15:45:57;23.80;99.90